Time;durP1;ratioP1;P1;durP2;ratioP2;P2;SDS_P1;SDS_P2;PMS_P1;PMS_P2;Temp;Humidity;BMP_temperature;BMP_pressure;BME280_temperature;BME280_humidity;BME280_pressure;Samples;Min_cycle;Max_cycle;Signal;HPM_P1;HPM_P2
2023/04/20 00:00:46;;;;;;;1.60;0.80;;;7.00;99.90;;;;;;5001316;28;20041;-79
2023/04/20 00:03:13;;;;;;;1.92;0.85;;;7.00;99.90;;;;;;5016138;28;20060;-79
2023/04/20 00:05:40;;;;;;;2.33;0.77;;;6.90;99.90;;;;;;5017716;28;20064;-78
2023/04/20 00:08:07;;;;;;;2.58;0.90;;;6.90;99.90;;;;;;5020684;28;20136;-78
2023/04/20 00:10:34;;;;;;;2.05;0.80;;;6.90;99.90;;;;;;5021466;28;20050;-78
2023/04/20 00:13:01;;;;;;;1.17;0.70;;;6.90;99.90;;;;;;5020714;28;20524;-78
2023/04/20 00:15:28;;;;;;;2.38;1.40;;;6.90;99.90;;;;;;5020449;28;20548;-79
2023/04/20 00:17:56;;;;;;;2.38;0.90;;;6.90;99.90;;;;;;5019440;28;20459;-79
2023/04/20 00:20:23;;;;;;;5.32;1.25;;;6.80;99.90;;;;;;5017229;28;20507;-79
2023/04/20 00:22:50;;;;;;;1.55;0.70;;;6.90;99.90;;;;;;5017521;28;20416;-78
2023/04/20 00:25:17;;;;;;;2.75;1.33;;;6.80;99.90;;;;;;5015443;28;20074;-79
2023/04/20 00:27:44;;;;;;;2.85;1.10;;;6.80;99.90;;;;;;5002793;28;20506;-78
2023/04/20 00:30:11;;;;;;;2.67;1.10;;;6.80;99.90;;;;;;5008955;28;20045;-78
2023/04/20 00:32:38;;;;;;;1.50;1.08;;;6.80;99.90;;;;;;5022869;28;20384;-78
2023/04/20 00:35:05;;;;;;;2.05;1.00;;;6.80;99.90;;;;;;5024628;28;20050;-78
2023/04/20 00:37:32;;;;;;;3.20;1.00;;;6.80;99.90;;;;;;5025925;28;20373;-78
2023/04/20 00:39:59;;;;;;;2.33;0.88;;;6.80;99.90;;;;;;5018000;28;20073;-78
2023/04/20 00:42:26;;;;;;;2.08;1.10;;;6.70;99.90;;;;;;5023059;28;20172;-78
2023/04/20 00:44:52;;;;;;;2.85;1.20;;;6.70;99.90;;;;;;5024317;28;20073;-78
2023/04/20 00:47:19;;;;;;;3.17;1.40;;;6.70;99.90;;;;;;5024712;28;20140;-79
2023/04/20 00:49:46;;;;;;;1.65;0.85;;;6.70;99.90;;;;;;5025208;28;20061;-78
2023/04/20 00:52:13;;;;;;;4.68;1.17;;;6.70;99.90;;;;;;5024411;28;20335;-78
2023/04/20 00:54:41;;;;;;;2.40;1.20;;;6.70;99.90;;;;;;5006670;28;20139;-78
2023/04/20 00:57:09;;;;;;;4.45;1.65;;;6.70;99.90;;;;;;5025683;28;20546;-78
2023/04/20 00:59:36;;;;;;;1.92;0.75;;;6.60;99.90;;;;;;5024986;28;20440;-78
2023/04/20 01:02:03;;;;;;;1.60;0.93;;;6.60;99.90;;;;;;5022559;28;20593;-78
2023/04/20 01:04:30;;;;;;;1.63;1.02;;;6.70;99.90;;;;;;5019941;28;20564;-79
2023/04/20 01:06:57;;;;;;;2.33;1.08;;;6.60;99.90;;;;;;5023166;28;20053;-78
2023/04/20 01:09:24;;;;;;;1.77;0.93;;;6.60;99.90;;;;;;5021674;28;20064;-77
2023/04/20 01:11:51;;;;;;;1.50;0.82;;;6.60;99.90;;;;;;5022766;28;20065;-77
2023/04/20 01:14:17;;;;;;;1.50;0.80;;;6.60;99.90;;;;;;5002660;28;20125;-78
2023/04/20 01:16:45;;;;;;;2.45;1.10;;;6.60;99.90;;;;;;5018247;28;20061;-78
2023/04/20 01:19:12;;;;;;;2.60;1.30;;;6.60;99.90;;;;;;5018130;28;20580;-78
2023/04/20 01:21:39;;;;;;;2.10;1.17;;;6.60;99.90;;;;;;5022125;28;20045;-78
2023/04/20 01:24:06;;;;;;;2.30;0.80;;;6.50;99.90;;;;;;5021629;28;20160;-78
2023/04/20 01:26:33;;;;;;;1.92;1.10;;;6.50;99.90;;;;;;5022317;28;20068;-78
2023/04/20 01:29:00;;;;;;;4.95;1.58;;;6.50;99.90;;;;;;5024306;28;20057;-78
2023/04/20 01:31:27;;;;;;;2.92;1.30;;;6.50;99.90;;;;;;5025528;28;20080;-78
2023/04/20 01:33:54;;;;;;;2.50;1.20;;;6.50;99.90;;;;;;5021734;28;20050;-77
2023/04/20 01:36:21;;;;;;;2.65;1.40;;;6.50;99.90;;;;;;5022250;28;20175;-78
2023/04/20 01:38:48;;;;;;;3.05;1.35;;;6.50;99.90;;;;;;5024701;28;20064;-78
2023/04/20 01:41:15;;;;;;;3.05;1.23;;;6.50;99.90;;;;;;5026617;28;20053;-79
2023/04/20 01:43:42;;;;;;;2.42;1.15;;;6.50;99.90;;;;;;5026423;28;20045;-78
2023/04/20 01:46:09;;;;;;;3.05;1.48;;;6.50;99.90;;;;;;5025476;28;20071;-79
2023/04/20 01:48:35;;;;;;;3.95;1.70;;;6.40;99.90;;;;;;5025195;28;20198;-78
2023/04/20 01:51:02;;;;;;;2.17;1.33;;;6.40;99.90;;;;;;5025062;28;20440;-78
2023/04/20 01:53:29;;;;;;;2.47;1.40;;;6.40;99.90;;;;;;5026011;28;20361;-79
2023/04/20 01:55:57;;;;;;;3.42;1.70;;;6.40;99.90;;;;;;5023115;28;20215;-79
2023/04/20 01:58:24;;;;;;;2.35;1.17;;;6.40;99.90;;;;;;5023668;28;20669;-78
2023/04/20 02:00:50;;;;;;;2.78;1.08;;;6.40;99.90;;;;;;5024346;28;20105;-78
2023/04/20 02:03:17;;;;;;;3.20;0.90;;;6.30;99.90;;;;;;5025609;28;20041;-78
2023/04/20 02:05:44;;;;;;;1.60;1.00;;;6.40;99.90;;;;;;5021844;28;20057;-78
2023/04/20 02:08:12;;;;;;;3.28;1.48;;;6.40;99.90;;;;;;5023839;28;20120;-79
2023/04/20 02:10:39;;;;;;;2.10;1.20;;;6.30;99.90;;;;;;5022162;28;20138;-79
2023/04/20 02:13:06;;;;;;;2.08;1.25;;;6.30;99.90;;;;;;5024067;28;20045;-79
2023/04/20 02:15:33;;;;;;;4.53;1.50;;;6.30;99.90;;;;;;5023294;28;20736;-78
2023/04/20 02:18:00;;;;;;;4.13;1.55;;;6.30;99.90;;;;;;5024151;28;20496;-79
2023/04/20 02:20:27;;;;;;;3.13;2.13;;;6.30;99.90;;;;;;5025157;28;20569;-79
2023/04/20 02:22:54;;;;;;;2.67;1.40;;;6.30;99.90;;;;;;5007372;28;20119;-79
2023/04/20 02:25:20;;;;;;;2.25;1.30;;;6.30;99.90;;;;;;5020954;28;20417;-79
2023/04/20 02:27:48;;;;;;;1.98;1.20;;;6.30;99.90;;;;;;5023330;28;20054;-78
2023/04/20 02:30:15;;;;;;;2.53;1.42;;;6.30;99.90;;;;;;5024649;28;20511;-78
2023/04/20 02:32:42;;;;;;;2.28;0.90;;;6.20;99.90;;;;;;5023570;28;20042;-78
2023/04/20 02:35:09;;;;;;;3.95;1.38;;;6.20;99.90;;;;;;5022729;28;20096;-78
2023/04/20 02:37:36;;;;;;;1.65;1.00;;;6.20;99.90;;;;;;5023325;28;20084;-78
2023/04/20 02:40:03;;;;;;;2.42;1.17;;;6.20;99.90;;;;;;5022414;28;20921;-79
2023/04/20 02:42:30;;;;;;;3.17;1.55;;;6.20;99.90;;;;;;5025459;28;20044;-78
2023/04/20 02:44:57;;;;;;;2.45;1.15;;;6.20;99.90;;;;;;5022659;28;20128;-78
2023/04/20 02:47:24;;;;;;;2.20;1.40;;;6.10;99.90;;;;;;5022105;28;20053;-78
2023/04/20 02:49:51;;;;;;;3.28;1.52;;;6.10;99.90;;;;;;5023298;28;20386;-79
2023/04/20 02:52:18;;;;;;;2.30;1.20;;;6.10;99.90;;;;;;5023259;28;20042;-78
2023/04/20 02:54:44;;;;;;;2.13;1.50;;;6.10;99.90;;;;;;5023235;28;20094;-78
2023/04/20 02:57:11;;;;;;;1.50;1.10;;;6.10;99.90;;;;;;5023167;28;20128;-78
2023/04/20 02:59:38;;;;;;;3.47;2.10;;;6.00;99.90;;;;;;5022695;28;20057;-79
2023/04/20 03:02:05;;;;;;;2.78;1.50;;;6.10;99.90;;;;;;5022700;28;20485;-80
2023/04/20 03:04:32;;;;;;;3.50;1.63;;;6.00;99.90;;;;;;5022666;28;20045;-79
2023/04/20 03:07:00;;;;;;;2.50;1.38;;;6.00;99.90;;;;;;5024337;28;20041;-78
2023/04/20 03:09:27;;;;;;;3.72;1.40;;;6.00;99.90;;;;;;5023379;28;20049;-78
2023/04/20 03:11:53;;;;;;;3.78;1.30;;;6.00;99.90;;;;;;5022933;28;20376;-78
2023/04/20 03:14:20;;;;;;;3.05;1.60;;;6.00;99.90;;;;;;5022582;28;20127;-78
2023/04/20 03:16:47;;;;;;;1.83;1.25;;;6.00;99.90;;;;;;5024080;28;20049;-77
2023/04/20 03:19:15;;;;;;;3.67;1.80;;;5.90;99.90;;;;;;5038412;28;20076;-79
2023/04/20 03:21:43;;;;;;;1.90;1.35;;;5.90;99.90;;;;;;5023947;28;20041;-77
2023/04/20 03:24:10;;;;;;;3.13;1.60;;;5.90;99.90;;;;;;5037782;28;20079;-78
2023/04/20 03:26:37;;;;;;;3.85;1.85;;;5.80;99.90;;;;;;5022296;28;20045;-78
2023/04/20 03:29:04;;;;;;;4.40;2.05;;;5.80;99.90;;;;;;5022483;28;20047;-78
2023/04/20 03:31:30;;;;;;;4.00;1.55;;;5.80;99.90;;;;;;5024141;28;20139;-78
2023/04/20 03:33:57;;;;;;;2.53;1.40;;;5.70;99.90;;;;;;5020649;28;20041;-79
2023/04/20 03:36:24;;;;;;;4.93;1.65;;;5.70;99.90;;;;;;5038817;28;20051;-78
2023/04/20 03:38:51;;;;;;;2.85;1.50;;;5.70;99.90;;;;;;5005305;28;20570;-78
2023/04/20 03:41:18;;;;;;;2.38;1.63;;;5.70;99.90;;;;;;5021659;28;20046;-79
2023/04/20 03:43:45;;;;;;;2.70;1.42;;;5.70;99.90;;;;;;5006790;28;20311;-78
2023/04/20 03:46:12;;;;;;;3.85;1.73;;;5.70;99.90;;;;;;5038722;28;20116;-78
2023/04/20 03:48:39;;;;;;;2.50;1.33;;;5.70;99.90;;;;;;5024306;28;20494;-78
2023/04/20 03:51:06;;;;;;;1.38;1.10;;;5.70;99.90;;;;;;5023977;28;20116;-79
2023/04/20 03:53:33;;;;;;;3.20;1.60;;;5.70;99.90;;;;;;5019960;28;20041;-78
2023/04/20 03:56:00;;;;;;;2.75;1.63;;;5.60;99.90;;;;;;5005096;28;20064;-78
2023/04/20 03:58:27;;;;;;;2.67;1.60;;;5.70;99.90;;;;;;5023307;28;20050;-78
2023/04/20 04:01:00;;;;;;;2.22;1.80;;;5.70;99.90;;;;;;5021974;28;20077;-78
2023/04/20 04:03:27;;;;;;;1.83;1.30;;;5.70;99.90;;;;;;5022190;28;20053;-79
2023/04/20 04:05:55;;;;;;;3.33;1.60;;;5.70;99.90;;;;;;5006289;28;20128;-78
2023/04/20 04:08:22;;;;;;;2.58;1.50;;;5.70;99.90;;;;;;5021266;28;20128;-77
2023/04/20 04:10:49;;;;;;;2.10;1.33;;;5.70;99.90;;;;;;5021125;28;20512;-78
2023/04/20 04:13:16;;;;;;;2.08;1.40;;;5.70;99.90;;;;;;5023720;28;20174;-78
2023/04/20 04:15:42;;;;;;;2.17;1.20;;;5.60;99.90;;;;;;5023253;28;20417;-78
2023/04/20 04:18:09;;;;;;;2.33;1.35;;;5.60;99.90;;;;;;5020977;28;20050;-78
2023/04/20 04:20:36;;;;;;;2.90;1.70;;;5.70;99.90;;;;;;5021945;28;20504;-79
2023/04/20 04:23:03;;;;;;;1.92;1.25;;;5.70;99.90;;;;;;5019386;28;20077;-78
2023/04/20 04:25:30;;;;;;;2.22;1.15;;;5.60;99.90;;;;;;5022359;28;20080;-78
2023/04/20 04:27:57;;;;;;;1.83;1.23;;;5.60;99.90;;;;;;5023771;28;20535;-78
2023/04/20 04:30:25;;;;;;;2.33;1.33;;;5.70;99.90;;;;;;5021286;28;20133;-78
2023/04/20 04:32:52;;;;;;;2.67;1.08;;;5.60;99.90;;;;;;5024035;28;20432;-78
2023/04/20 04:35:19;;;;;;;1.75;0.98;;;5.60;99.90;;;;;;5023214;28;20440;-78
2023/04/20 04:37:46;;;;;;;1.90;1.20;;;5.60;99.90;;;;;;5022868;28;20378;-78
2023/04/20 04:40:13;;;;;;;1.98;1.45;;;5.60;99.90;;;;;;5021077;28;20092;-79
2023/04/20 04:42:40;;;;;;;1.90;1.52;;;5.60;99.90;;;;;;5019512;28;20081;-79
2023/04/20 04:45:09;;;;;;;2.13;1.20;;;5.50;99.90;;;;;;5020363;28;20045;-79
2023/04/20 04:47:36;;;;;;;2.05;1.33;;;5.50;99.90;;;;;;5018757;28;20042;-78
2023/04/20 04:50:05;;;;;;;2.67;1.50;;;5.50;99.90;;;;;;5017248;28;20135;-79
2023/04/20 04:52:32;;;;;;;1.92;1.30;;;5.60;99.90;;;;;;5001855;28;20045;-78
2023/04/20 04:54:59;;;;;;;2.00;1.20;;;5.50;99.90;;;;;;5001714;28;20142;-78
2023/04/20 04:57:26;;;;;;;4.20;1.63;;;5.50;99.90;;;;;;5019125;28;20053;-78
2023/04/20 04:59:54;;;;;;;2.75;1.60;;;5.50;99.90;;;;;;5019678;28;20201;-78
2023/04/20 05:02:21;;;;;;;3.13;1.80;;;5.50;99.90;;;;;;5014368;28;20077;-78
2023/04/20 05:04:48;;;;;;;2.42;1.23;;;5.50;99.90;;;;;;5015890;28;20049;-77
2023/04/20 05:07:16;;;;;;;2.33;1.50;;;5.40;99.90;;;;;;5029715;28;20545;-78
2023/04/20 05:09:43;;;;;;;1.98;1.30;;;5.40;99.90;;;;;;5016168;28;20583;-78
2023/04/20 05:12:10;;;;;;;1.77;1.30;;;5.40;99.90;;;;;;5016906;28;20057;-79
2023/04/20 05:14:36;;;;;;;2.22;1.25;;;5.40;99.90;;;;;;5015481;28;20042;-79
2023/04/20 05:17:03;;;;;;;2.47;1.13;;;5.40;99.90;;;;;;5027157;28;20059;-79
2023/04/20 05:19:30;;;;;;;2.20;1.33;;;5.40;99.90;;;;;;5020744;28;20515;-79
2023/04/20 05:21:57;;;;;;;3.55;1.88;;;5.40;99.90;;;;;;5020051;28;20140;-79
2023/04/20 05:24:24;;;;;;;2.45;1.50;;;5.40;99.90;;;;;;5023529;28;20058;-79
2023/04/20 05:26:51;;;;;;;2.95;1.70;;;5.40;99.90;;;;;;5020909;28;20131;-77
2023/04/20 05:29:18;;;;;;;1.85;1.35;;;5.40;99.90;;;;;;5018913;28;20103;-79
2023/04/20 05:31:45;;;;;;;2.38;1.73;;;5.40;99.90;;;;;;5004714;28;20088;-78
2023/04/20 05:34:12;;;;;;;2.83;1.27;;;5.50;99.90;;;;;;5021639;28;20049;-78
2023/04/20 05:36:40;;;;;;;2.20;1.17;;;5.50;99.90;;;;;;5020185;28;20084;-78
2023/04/20 05:39:07;;;;;;;2.70;1.40;;;5.50;99.90;;;;;;5019554;28;20061;-78
2023/04/20 05:41:34;;;;;;;2.88;1.60;;;5.50;99.90;;;;;;5020554;28;20101;-78
2023/04/20 05:44:01;;;;;;;2.00;1.20;;;5.50;99.90;;;;;;5022367;28;20505;-78
2023/04/20 05:46:28;;;;;;;1.73;1.23;;;5.60;99.90;;;;;;4984977;28;20181;-78
2023/04/20 05:48:55;;;;;;;3.10;1.30;;;5.60;99.90;;;;;;5015437;28;20100;-78
2023/04/20 05:51:22;;;;;;;1.73;1.10;;;5.60;99.90;;;;;;5019049;28;20115;-78
2023/04/20 05:53:49;;;;;;;3.35;1.80;;;5.70;99.90;;;;;;5023632;28;20578;-78
2023/04/20 05:56:17;;;;;;;2.15;1.20;;;5.70;99.90;;;;;;5023336;28;20053;-79
2023/04/20 05:58:44;;;;;;;1.70;1.30;;;5.70;99.90;;;;;;5022825;28;20074;-80
2023/04/20 06:01:11;;;;;;;2.63;1.48;;;5.80;99.90;;;;;;5000391;28;20057;-79
2023/04/20 06:03:37;;;;;;;2.97;1.67;;;5.80;99.90;;;;;;5011984;28;20055;-78
2023/04/20 06:06:05;;;;;;;3.28;1.48;;;5.90;99.90;;;;;;5019751;28;20083;-79
2023/04/20 06:08:32;;;;;;;2.92;1.48;;;5.90;99.90;;;;;;5021535;28;20107;-79
2023/04/20 06:10:59;;;;;;;2.45;1.40;;;6.00;99.90;;;;;;5019443;28;20065;-79
2023/04/20 06:13:26;;;;;;;2.92;1.60;;;6.10;99.90;;;;;;5020300;28;20148;-79
2023/04/20 06:15:53;;;;;;;3.47;1.48;;;6.10;99.90;;;;;;5018082;28;20188;-79
2023/04/20 06:18:20;;;;;;;1.65;1.15;;;6.20;99.90;;;;;;5003222;28;20089;-79
2023/04/20 06:20:47;;;;;;;2.67;1.40;;;6.30;99.90;;;;;;5020594;28;20053;-78
2023/04/20 06:23:14;;;;;;;2.88;1.58;;;6.40;99.90;;;;;;5018820;28;20118;-78
2023/04/20 06:25:40;;;;;;;1.80;1.63;;;6.40;99.90;;;;;;5015605;28;20128;-79
2023/04/20 06:28:07;;;;;;;2.65;1.70;;;6.50;99.90;;;;;;5018394;28;20053;-78
2023/04/20 06:30:35;;;;;;;3.08;1.83;;;6.60;99.90;;;;;;5020346;28;20084;-78
2023/04/20 06:33:02;;;;;;;4.15;1.95;;;6.70;99.90;;;;;;5022794;28;20057;-77
2023/04/20 06:35:28;;;;;;;3.75;1.42;;;6.70;99.90;;;;;;5020480;28;20058;-78
2023/04/20 06:37:56;;;;;;;3.05;1.67;;;6.80;99.90;;;;;;5022063;28;20061;-78
2023/04/20 06:40:26;;;;;;;2.30;1.48;;;6.90;99.90;;;;;;5021846;28;20045;-78
2023/04/20 06:42:53;;;;;;;2.47;1.20;;;7.00;99.90;;;;;;5029370;28;20072;-78
2023/04/20 06:45:20;;;;;;;2.70;1.48;;;7.10;99.90;;;;;;5004849;28;20077;-78
2023/04/20 06:47:47;;;;;;;2.30;1.48;;;7.10;99.90;;;;;;5034640;28;20427;-78
2023/04/20 06:50:14;;;;;;;2.38;1.17;;;7.20;99.90;;;;;;5018702;28;20176;-78
2023/04/20 06:52:41;;;;;;;2.22;1.40;;;7.30;99.90;;;;;;5021974;28;20056;-79
2023/04/20 06:55:08;;;;;;;3.25;1.70;;;7.30;99.90;;;;;;5020851;28;20085;-79
2023/04/20 06:57:37;;;;;;;4.25;1.92;;;7.40;99.90;;;;;;5018525;28;20530;-78
2023/04/20 07:00:07;;;;;;;4.68;2.50;;;7.50;99.90;;;;;;5014021;28;20535;-78
2023/04/20 07:02:44;;;;;;;4.45;2.58;;;7.50;99.90;;;;;;5021188;28;20087;-78
2023/04/20 07:05:11;;;;;;;2.47;1.95;;;7.60;99.90;;;;;;5018457;28;20081;-79
2023/04/20 07:07:38;;;;;;;4.03;2.35;;;7.70;99.90;;;;;;5004064;28;20240;-79
2023/04/20 07:10:07;;;;;;;4.65;1.85;;;7.80;99.90;;;;;;5022864;28;20083;-78
2023/04/20 07:12:35;;;;;;;3.40;2.30;;;7.90;99.90;;;;;;5023415;28;20411;-78
2023/04/20 07:15:03;;;;;;;2.90;2.00;;;7.90;99.90;;;;;;5005861;28;20053;-78
2023/04/20 07:17:30;;;;;;;2.70;2.13;;;8.10;99.90;;;;;;5005375;28;20103;-78
2023/04/20 07:19:57;;;;;;;3.83;2.30;;;8.10;99.90;;;;;;5021660;28;20053;-79
2023/04/20 07:22:24;;;;;;;4.30;1.55;;;8.20;99.90;;;;;;5021637;28;20109;-78
2023/04/20 07:24:51;;;;;;;2.58;1.90;;;8.20;99.90;;;;;;5021442;28;20088;-78
2023/04/20 07:27:18;;;;;;;3.20;1.70;;;8.30;99.90;;;;;;5023443;28;20128;-78
2023/04/20 07:29:45;;;;;;;3.50;2.08;;;8.40;99.90;;;;;;5022421;28;20414;-79
2023/04/20 07:32:13;;;;;;;4.65;1.98;;;8.60;99.90;;;;;;5022395;28;20136;-79
2023/04/20 07:34:40;;;;;;;3.63;1.77;;;8.70;99.90;;;;;;5022070;28;20559;-79
2023/04/20 07:37:07;;;;;;;6.30;3.03;;;8.80;99.90;;;;;;5021273;28;20460;-79
2023/04/20 07:39:34;;;;;;;4.70;2.25;;;8.90;99.90;;;;;;5021352;28;20274;-78
2023/04/20 07:42:02;;;;;;;3.88;2.20;;;8.90;99.90;;;;;;5022179;28;20170;-78
2023/04/20 07:44:29;;;;;;;3.45;2.13;;;9.00;99.90;;;;;;5005016;28;20426;-79
2023/04/20 07:46:56;;;;;;;4.22;2.40;;;9.10;99.90;;;;;;5021541;28;20045;-79
2023/04/20 07:49:26;;;;;;;6.13;2.17;;;9.20;99.90;;;;;;5021142;28;20077;-79
2023/04/20 07:51:53;;;;;;;3.75;2.45;;;9.20;99.90;;;;;;5021334;28;20879;-78
2023/04/20 07:54:35;;;;;;;4.40;2.78;;;9.40;99.90;;;;;;5021805;28;20136;-79
2023/04/20 07:57:02;;;;;;;3.25;1.83;;;9.40;99.90;;;;;;5020395;28;20059;-79
2023/04/20 07:59:29;;;;;;;5.53;2.67;;;9.50;99.90;;;;;;5018628;28;20049;-78
2023/04/20 08:02:00;;;;;;;4.05;2.53;;;9.60;99.90;;;;;;5014019;28;20045;-79
2023/04/20 08:04:27;;;;;;;8.18;3.53;;;9.70;99.90;;;;;;5011066;28;20053;-78
2023/04/20 08:06:54;;;;;;;4.97;2.95;;;9.80;99.90;;;;;;5010983;28;20049;-79
2023/04/20 08:09:21;;;;;;;6.78;3.95;;;9.90;99.90;;;;;;5024040;28;20574;-79
2023/04/20 08:11:48;;;;;;;4.63;3.05;;;10.00;99.90;;;;;;5012312;28;20285;-79
2023/04/20 08:14:15;;;;;;;6.53;3.50;;;10.10;99.90;;;;;;5026434;28;20078;-79
2023/04/20 08:16:42;;;;;;;7.40;3.20;;;10.10;99.90;;;;;;4995721;28;20128;-79
2023/04/20 08:19:09;;;;;;;3.33;2.42;;;10.20;99.90;;;;;;5009510;28;20523;-78
2023/04/20 08:21:36;;;;;;;6.85;3.78;;;10.30;99.90;;;;;;5014405;28;20072;-78
2023/04/20 08:24:04;;;;;;;6.15;3.42;;;10.40;99.90;;;;;;4995154;28;20170;-82
2023/04/20 08:26:31;;;;;;;4.35;2.70;;;10.40;99.90;;;;;;4996420;28;20063;-83
2023/04/20 08:28:59;;;;;;;8.27;4.07;;;10.50;99.90;;;;;;4999342;28;20041;-82
2023/04/20 08:31:26;;;;;;;7.47;3.42;;;10.60;99.90;;;;;;4995501;28;20113;-82
2023/04/20 08:33:53;;;;;;;3.90;2.70;;;10.60;99.90;;;;;;4999928;28;20107;-83
2023/04/20 08:36:20;;;;;;;3.22;2.30;;;10.70;99.90;;;;;;4998889;28;20140;-82
2023/04/20 08:38:55;;;;;;;5.85;2.63;;;10.80;99.90;;;;;;4995625;28;20053;-83
2023/04/20 08:41:24;;;;;;;3.20;2.33;;;10.90;99.90;;;;;;5000652;28;20621;-82
2023/04/20 08:43:51;;;;;;;4.35;2.45;;;11.00;99.90;;;;;;5001199;28;20046;-82
2023/04/20 08:46:18;;;;;;;5.05;2.70;;;11.00;99.90;;;;;;5004439;28;20057;-82
2023/04/20 08:48:47;;;;;;;5.47;1.95;;;11.10;99.90;;;;;;5008723;28;20061;-82
2023/04/20 08:51:15;;;;;;;5.43;2.15;;;11.20;99.90;;;;;;5008328;28;20053;-82
2023/04/20 08:53:42;;;;;;;3.30;2.08;;;11.30;99.90;;;;;;5004417;28;20082;-82
2023/04/20 08:56:10;;;;;;;3.83;2.22;;;11.40;99.90;;;;;;4988027;28;20120;-82
2023/04/20 08:58:41;;;;;;;3.78;1.98;;;11.40;99.90;;;;;;5000538;28;20631;-82
2023/04/20 09:01:09;;;;;;;3.55;1.90;;;11.50;99.90;;;;;;5024272;28;20061;-81
2023/04/20 09:03:40;;;;;;;2.83;1.92;;;11.50;99.90;;;;;;4988120;28;20054;-82
2023/04/20 09:06:17;;;;;;;6.22;1.95;;;11.60;99.90;;;;;;4988231;28;20081;-81
2023/04/20 09:08:47;;;;;;;8.63;2.47;;;11.70;99.90;;;;;;4988439;28;20143;-82
2023/04/20 09:11:23;;;;;;;5.88;1.85;;;11.70;99.70;;;;;;5003517;28;20057;-81
2023/04/20 09:14:11;;;;;;;3.85;1.70;;;11.80;99.10;;;;;;5003226;28;20048;-81
2023/04/20 09:17:03;;;;;;;3.38;1.60;;;11.90;98.40;;;;;;5009955;28;20037;-81
2023/04/20 09:19:30;;;;;;;2.08;1.38;;;12.20;97.60;;;;;;5023706;28;20128;-82
2023/04/20 09:22:00;;;;;;;3.13;1.65;;;12.40;97.70;;;;;;5007045;28;20074;-82
2023/04/20 09:24:31;;;;;;;2.40;1.40;;;12.60;96.90;;;;;;4999954;28;20050;-81
2023/04/20 09:27:00;;;;;;;2.58;1.40;;;12.70;96.30;;;;;;5001064;28;20735;-82
2023/04/20 09:29:27;;;;;;;2.40;1.05;;;12.80;96.20;;;;;;4990272;28;20099;-82
2023/04/20 09:31:54;;;;;;;3.60;1.50;;;13.00;95.70;;;;;;5007596;28;20137;-81
2023/04/20 09:34:23;;;;;;;2.50;1.65;;;13.20;96.20;;;;;;5006942;28;20061;-83
2023/04/20 09:36:51;;;;;;;2.13;1.13;;;13.20;94.80;;;;;;5023517;28;20681;-82
2023/04/20 09:39:22;;;;;;;2.45;1.40;;;13.40;95.60;;;;;;5006511;28;20087;-82
2023/04/20 09:41:50;;;;;;;1.80;1.20;;;13.50;95.20;;;;;;5007571;28;20132;-82
2023/04/20 09:44:17;;;;;;;2.97;1.23;;;13.50;94.20;;;;;;5006494;28;20057;-82
2023/04/20 09:46:45;;;;;;;1.95;1.02;;;13.60;94.70;;;;;;5007514;28;20540;-82
2023/04/20 09:49:12;;;;;;;2.35;1.00;;;13.70;93.80;;;;;;5007729;28;20562;-82
2023/04/20 09:51:45;;;;;;;2.28;1.17;;;13.60;93.00;;;;;;5005202;28;20373;-82
2023/04/20 09:54:14;;;;;;;3.47;1.23;;;13.80;93.80;;;;;;4999507;28;20382;-82
2023/04/20 09:56:42;;;;;;;2.08;1.20;;;13.90;93.70;;;;;;4969502;28;20058;-82
2023/04/20 09:59:09;;;;;;;7.03;1.50;;;13.90;93.00;;;;;;4988776;28;20108;-82
2023/04/20 10:01:36;;;;;;;4.68;1.48;;;13.70;92.40;;;;;;5007094;28;20049;-82
2023/04/20 10:04:12;;;;;;;3.17;1.30;;;13.60;93.10;;;;;;5005885;28;20132;-82
2023/04/20 10:06:50;;;;;;;1.80;1.10;;;13.80;92.90;;;;;;5003841;28;20061;-82
2023/04/20 10:09:27;;;;;;;1.48;0.70;;;13.90;93.40;;;;;;5000939;28;20053;-82
2023/04/20 10:12:04;;;;;;;3.47;1.30;;;14.00;92.90;;;;;;5004784;28;20057;-82
2023/04/20 10:14:31;;;;;;;1.77;1.35;;;14.10;93.20;;;;;;5022740;28;20099;-82
2023/04/20 10:17:05;;;;;;;3.63;1.30;;;14.10;92.80;;;;;;5004130;28;20148;-82
2023/04/20 10:19:43;;;;;;;3.40;1.40;;;14.30;92.10;;;;;;4995286;28;20068;-82
2023/04/20 10:22:11;;;;;;;2.20;1.10;;;14.20;91.80;;;;;;5004834;28;20049;-81
2023/04/20 10:24:39;;;;;;;2.20;1.20;;;14.10;92.10;;;;;;5014444;28;20050;-82
2023/04/20 10:27:16;;;;;;;3.28;1.35;;;14.10;91.80;;;;;;4984031;28;20050;-82
2023/04/20 10:29:43;;;;;;;4.55;1.92;;;14.10;91.80;;;;;;4992365;28;20046;-82
2023/04/20 10:32:21;;;;;;;1.60;1.00;;;14.10;91.60;;;;;;5003478;28;20046;-82
2023/04/20 10:34:58;;;;;;;4.20;1.30;;;14.10;91.60;;;;;;5023338;28;20045;-82
2023/04/20 10:37:25;;;;;;;2.88;1.30;;;14.10;92.00;;;;;;5022806;28;20056;-82
2023/04/20 10:39:52;;;;;;;1.98;1.05;;;14.10;91.60;;;;;;5020684;28;20056;-82
2023/04/20 10:42:18;;;;;;;2.53;1.17;;;13.90;91.70;;;;;;5005760;28;20408;-83
2023/04/20 10:44:52;;;;;;;2.35;1.38;;;13.70;91.80;;;;;;5002562;28;20148;-82
2023/04/20 10:47:29;;;;;;;2.85;1.20;;;13.90;92.30;;;;;;5003791;28;20061;-82
2023/04/20 10:50:09;;;;;;;5.35;1.45;;;14.10;91.70;;;;;;5021895;28;20053;-81
2023/04/20 10:52:38;;;;;;;3.13;1.25;;;14.30;90.70;;;;;;5005198;28;20053;-81
2023/04/20 10:55:05;;;;;;;2.30;1.52;;;14.40;90.90;;;;;;5014318;28;20568;-83
2023/04/20 10:57:32;;;;;;;3.20;1.17;;;14.50;91.10;;;;;;4999327;28;20083;-82
2023/04/20 10:59:59;;;;;;;3.17;1.30;;;14.60;90.50;;;;;;5000348;28;20385;-83
2023/04/20 11:02:26;;;;;;;3.20;1.00;;;14.60;90.60;;;;;;4998601;28;20071;-83
2023/04/20 11:04:59;;;;;;;2.30;1.30;;;14.80;90.80;;;;;;4996505;28;20085;-83
2023/04/20 11:07:28;;;;;;;4.78;1.33;;;15.00;91.70;;;;;;5000575;28;20088;-83
2023/04/20 11:09:55;;;;;;;2.92;1.35;;;15.00;89.00;;;;;;4993401;28;20448;-83
2023/04/20 11:12:22;;;;;;;2.35;1.17;;;15.10;89.80;;;;;;5015791;28;20557;-84
2023/04/20 11:14:56;;;;;;;2.38;1.08;;;15.20;88.60;;;;;;4997233;28;20102;-83
2023/04/20 11:17:33;;;;;;;4.50;1.52;;;15.30;89.80;;;;;;4997732;28;20051;-84
2023/04/20 11:20:14;;;;;;;4.93;1.65;;;15.40;87.30;;;;;;5000437;28;20556;-84
2023/04/20 11:22:41;;;;;;;3.90;1.48;;;15.30;86.70;;;;;;5000941;28;20440;-83
2023/04/20 11:25:09;;;;;;;2.13;1.17;;;15.30;87.40;;;;;;4999141;28;20085;-85
2023/04/20 11:27:37;;;;;;;2.78;1.50;;;15.20;88.10;;;;;;5000307;28;20056;-83
2023/04/20 11:30:04;;;;;;;3.78;1.33;;;15.30;88.70;;;;;;4995988;28;20049;-84
2023/04/20 11:32:32;;;;;;;2.45;1.33;;;15.40;88.50;;;;;;4984257;28;20060;-83
2023/04/20 11:35:06;;;;;;;2.03;1.10;;;15.60;88.20;;;;;;4998719;28;20057;-83
2023/04/20 11:37:47;;;;;;;3.15;1.50;;;15.60;85.90;;;;;;4991626;28;20132;-81
2023/04/20 11:40:14;;;;;;;3.05;1.63;;;15.60;87.00;;;;;;4994746;28;20092;-83
2023/04/20 11:42:41;;;;;;;4.85;2.30;;;15.50;88.20;;;;;;5014200;28;20085;-82
2023/04/20 11:45:10;;;;;;;5.10;1.90;;;15.40;87.10;;;;;;5010856;28;20071;-84
2023/04/20 11:47:39;;;;;;;1.98;1.35;;;15.70;87.10;;;;;;4997465;28;20052;-83
2023/04/20 11:50:08;;;;;;;3.72;1.50;;;16.20;87.60;;;;;;4998446;28;20535;-83
2023/04/20 11:52:35;;;;;;;3.53;1.23;;;16.60;85.40;;;;;;4997563;28;20568;-81
2023/04/20 11:55:01;;;;;;;5.15;1.63;;;16.60;83.70;;;;;;4996202;28;20164;-83
2023/04/20 11:57:28;;;;;;;1.83;1.10;;;16.80;82.50;;;;;;4995791;28;20065;-82
2023/04/20 11:59:55;;;;;;;2.53;0.88;;;16.50;83.10;;;;;;5012275;28;20053;-81
2023/04/20 12:02:22;;;;;;;4.25;1.50;;;16.20;83.10;;;;;;4996314;28;20096;-82
2023/04/20 12:04:49;;;;;;;1.92;1.08;;;15.70;84.10;;;;;;5012857;28;20467;-82
2023/04/20 12:07:16;;;;;;;1.88;1.08;;;15.40;83.10;;;;;;5012309;28;20536;-82
2023/04/20 12:09:43;;;;;;;1.50;0.98;;;15.90;83.20;;;;;;4995429;28;20041;-82
2023/04/20 12:12:10;;;;;;;1.60;1.30;;;16.40;82.10;;;;;;4980263;28;20136;-82
2023/04/20 12:14:37;;;;;;;1.80;1.02;;;16.60;80.70;;;;;;5006249;28;20556;-82
2023/04/20 12:17:04;;;;;;;1.80;1.02;;;17.00;80.90;;;;;;5007006;28;20052;-82
2023/04/20 12:19:31;;;;;;;3.22;1.73;;;17.30;79.50;;;;;;5012467;28;20091;-86
2023/04/20 12:21:57;;;;;;;2.13;1.25;;;17.60;78.40;;;;;;5002177;28;20062;-83
2023/04/20 12:24:25;;;;;;;2.28;1.20;;;17.40;76.80;;;;;;5001180;28;20061;-83
2023/04/20 12:26:51;;;;;;;3.72;1.30;;;17.40;78.10;;;;;;5001692;28;20103;-84
2023/04/20 12:29:18;;;;;;;3.53;1.30;;;17.50;77.80;;;;;;5000706;28;20579;-82
2023/04/20 12:31:45;;;;;;;5.47;1.13;;;17.90;76.70;;;;;;5005025;28;20309;-82
2023/04/20 12:34:12;;;;;;;2.92;1.10;;;18.20;76.70;;;;;;5004766;28;20045;-83
2023/04/20 12:36:39;;;;;;;3.15;1.20;;;18.00;75.90;;;;;;5020818;28;20053;-83
2023/04/20 12:39:06;;;;;;;2.17;1.00;;;18.00;76.80;;;;;;5004583;28;20361;-82
2023/04/20 12:41:33;;;;;;;1.45;0.98;;;18.20;75.30;;;;;;5007719;28;20518;-83
2023/04/20 12:44:00;;;;;;;1.60;1.15;;;17.90;74.60;;;;;;5006585;28;20189;-82
2023/04/20 12:46:31;;;;;;;3.40;1.10;;;18.00;74.00;;;;;;5005911;28;20404;-82
2023/04/20 12:48:58;;;;;;;2.33;0.80;;;18.70;73.60;;;;;;5023596;28;20413;-82
2023/04/20 12:51:26;;;;;;;2.83;1.20;;;18.80;74.40;;;;;;5008191;28;20067;-82
2023/04/20 12:53:52;;;;;;;1.48;0.95;;;18.60;71.80;;;;;;5023926;28;20081;-82
2023/04/20 12:56:20;;;;;;;1.65;0.90;;;18.20;73.30;;;;;;5024116;28;20138;-82